Time;durP1;ratioP1;P1;durP2;ratioP2;P2;SDS_P1;SDS_P2;PMS_P1;PMS_P2;Temp;Humidity;BMP_temperature;BMP_pressure;BME280_temperature;BME280_humidity;BME280_pressure;Samples;Min_cycle;Max_cycle;Signal;HPM_P1;HPM_P2
2022/08/02 00:02:23;;;;;;;4.70;4.20;;;;;;;20.18;83.86;99877.94;5055724;28;20064;-84
2022/08/02 00:04:49;;;;;;;5.00;4.20;;;;;;;20.12;84.39;99874.34;5059510;28;20048;-82
2022/08/02 00:07:14;;;;;;;4.70;4.30;;;;;;;20.09;84.88;99875.38;5075208;28;20040;-82
2022/08/02 00:09:41;;;;;;;5.35;4.03;;;;;;;20.02;84.56;99870.22;5072296;28;20040;-82
2022/08/02 00:12:07;;;;;;;5.22;3.78;;;;;;;19.97;83.19;99868.16;5075113;28;20064;-83
2022/08/02 00:14:32;;;;;;;5.10;4.20;;;;;;;20.02;82.15;99864.56;5075585;28;20416;-83
2022/08/02 00:16:58;;;;;;;4.78;3.40;;;;;;;20.14;80.63;99866.16;5068578;28;20123;-83
2022/08/02 00:19:24;;;;;;;4.72;3.90;;;;;;;20.26;79.88;99864.91;5057864;28;20040;-83
2022/08/02 00:21:49;;;;;;;4.60;3.45;;;;;;;20.33;79.09;99850.38;5108466;28;20418;-83
2022/08/02 00:24:15;;;;;;;9.15;3.53;;;;;;;20.46;78.68;99852.72;5076179;28;20075;-83
2022/08/02 00:26:40;;;;;;;4.03;3.22;;;;;;;20.51;77.83;99859.63;5093709;28;20459;-83
2022/08/02 00:29:06;;;;;;;4.28;3.50;;;;;;;20.59;78.03;99857.84;5058847;28;20082;-84
2022/08/02 00:31:31;;;;;;;4.82;3.33;;;;;;;20.60;77.23;99853.75;5075447;28;20032;-83
2022/08/02 00:33:57;;;;;;;5.30;3.47;;;;;;;20.57;77.23;99843.50;5084251;28;20078;-83
2022/08/02 00:36:22;;;;;;;4.57;3.50;;;;;;;20.65;76.99;99853.00;5086521;28;20043;-84
2022/08/02 00:38:49;;;;;;;4.55;3.60;;;;;;;20.65;77.14;99848.13;5081011;28;20044;-83
2022/08/02 00:41:17;;;;;;;3.75;3.25;;;;;;;20.72;76.78;99853.25;5059011;28;20048;-83
2022/08/02 00:43:43;;;;;;;3.80;3.45;;;;;;;20.74;75.99;99852.75;5060103;28;20059;-83
2022/08/02 00:46:10;;;;;;;4.45;3.40;;;;;;;20.76;76.37;99855.81;5039457;28;20048;-84
2022/08/02 00:48:35;;;;;;;3.50;3.20;;;;;;;20.77;76.11;99851.72;5071150;28;20075;-84
2022/08/02 00:51:01;;;;;;;5.32;3.60;;;;;;;20.76;75.80;99853.78;5055249;28;20056;-84
2022/08/02 00:53:27;;;;;;;3.90;3.33;;;;;;;20.79;75.90;99857.59;5055276;28;20048;-84
2022/08/02 00:55:52;;;;;;;3.92;3.30;;;;;;;20.78;75.50;99850.44;5064034;28;20046;-84
2022/08/02 00:58:18;;;;;;;4.40;3.22;;;;;;;20.77;75.71;99848.91;5057613;28;20135;-84
2022/08/02 01:03:19;;;;;;;5.05;3.30;;;;;;;20.86;74.84;99852.25;5114870;22;20052;-92
2022/08/02 01:05:45;;;;;;;5.32;3.58;;;;;;;20.87;75.15;99862.22;5060774;28;20101;-92
2022/08/02 01:08:10;;;;;;;5.25;3.72;;;;;;;20.85;75.19;99866.84;5051894;28;20053;-92
2022/08/02 01:10:36;;;;;;;5.15;3.20;;;;;;;20.87;75.39;99875.56;5050755;28;20136;-92
2022/08/02 01:13:01;;;;;;;3.70;3.00;;;;;;;20.85;75.74;99872.47;5051557;28;20032;-93
2022/08/02 01:15:27;;;;;;;4.05;3.33;;;;;;;20.81;75.19;99877.59;5033861;28;20037;-92
2022/08/02 01:18:02;;;;;;;5.18;3.47;;;;;;;20.81;75.19;99877.59;5034519;28;20037;-92
2022/08/02 01:20:38;;;;;;;4.05;3.42;;;;;;;20.85;74.84;99883.75;5047117;28;20199;-92
2022/08/02 01:23:51;;;;;;;6.10;3.47;;;;;;;20.85;74.82;99875.31;5051960;28;20121;-92
2022/08/02 01:26:19;;;;;;;5.57;3.50;;;;;;;20.81;75.02;99884.03;4980808;28;20081;-92
2022/08/02 01:28:52;;;;;;;4.53;3.38;;;;;;;20.80;75.20;99876.06;5052167;28;20178;-92
2022/08/02 01:31:17;;;;;;;4.70;3.90;;;;;;;20.84;75.16;99887.84;5050605;28;20048;-92
2022/08/02 01:33:48;;;;;;;3.75;3.30;;;;;;;20.85;74.61;99884.53;5054910;28;20396;-93
2022/08/02 01:36:16;;;;;;;3.70;3.30;;;;;;;20.87;74.57;99876.31;5054512;28;20116;-92
2022/08/02 01:38:47;;;;;;;4.13;3.40;;;;;;;20.89;74.74;99881.47;5031537;28;20025;-92
2022/08/02 01:41:18;;;;;;;6.25;3.63;;;;;;;20.88;74.51;99883.50;5029547;28;20067;-92
2022/08/02 01:43:45;;;;;;;4.90;3.42;;;;;;;20.91;74.46;99870.41;4996547;28;20034;-92
2022/08/02 01:46:13;;;;;;;3.45;3.00;;;;;;;20.93;74.04;99881.97;5019585;28;20055;-91
2022/08/02 01:48:40;;;;;;;4.82;3.40;;;;;;;20.95;74.40;99874.53;5029334;28;20432;-91
2022/08/02 01:51:06;;;;;;;6.53;3.60;;;;;;;20.96;74.07;99864.03;5030610;28;20069;-92
2022/08/02 01:53:32;;;;;;;5.32;2.95;;;;;;;20.94;73.45;99877.88;5031133;28;20072;-92
2022/08/02 01:55:58;;;;;;;3.60;3.20;;;;;;;20.88;74.02;99872.22;5030285;28;20179;-92
2022/08/02 01:58:26;;;;;;;4.25;3.50;;;;;;;20.86;74.23;99880.44;5044758;28;20112;-92
2022/08/02 02:00:55;;;;;;;4.20;3.30;;;;;;;20.79;74.30;99875.28;5051823;28;20041;-92
2022/08/02 02:03:23;;;;;;;3.72;3.30;;;;;;;20.78;74.91;99881.47;5031620;28;20088;-92
2022/08/02 02:05:51;;;;;;;3.92;3.15;;;;;;;20.79;74.93;99880.16;5032138;28;20107;-92
2022/08/02 02:08:21;;;;;;;4.40;3.20;;;;;;;20.81;74.87;99871.97;5013566;28;20045;-93
2022/08/02 02:10:47;;;;;;;4.72;3.20;;;;;;;20.89;74.34;99878.63;5010728;28;20107;-92
2022/08/02 02:13:14;;;;;;;4.25;3.33;;;;;;;20.94;74.50;99869.41;5011993;28;20054;-91
2022/08/02 02:15:44;;;;;;;4.50;3.35;;;;;;;20.94;74.81;99880.69;5011064;28;20046;-92
2022/08/02 02:18:12;;;;;;;3.65;3.10;;;;;;;20.93;74.20;99879.16;5012653;28;20084;-92
2022/08/02 02:20:37;;;;;;;4.45;3.38;;;;;;;20.91;74.92;99868.38;5000997;28;20034;-93
2022/08/02 02:23:03;;;;;;;4.55;3.53;;;;;;;20.88;74.81;99875.03;5013205;28;20057;-92
2022/08/02 02:25:28;;;;;;;4.40;3.50;;;;;;;20.91;74.70;99876.84;5028781;28;20069;-92
2022/08/02 02:28:01;;;;;;;4.55;3.47;;;;;;;20.88;74.99;99879.91;5012473;28;20139;-92
2022/08/02 02:30:28;;;;;;;4.50;3.70;;;;;;;20.85;75.04;99883.75;5030844;28;20073;-92
2022/08/02 02:32:56;;;;;;;3.72;3.20;;;;;;;20.82;75.18;99879.16;5030859;28;20038;-92
2022/08/02 02:35:22;;;;;;;5.10;3.50;;;;;;;20.78;75.14;99879.41;5013715;28;20448;-90
2022/08/02 02:37:49;;;;;;;4.55;3.50;;;;;;;20.78;75.49;99884.28;5009086;28;20096;-89
2022/08/02 02:40:15;;;;;;;4.20;3.80;;;;;;;20.75;76.15;99876.81;5009911;28;20046;-89
2022/08/02 02:42:41;;;;;;;3.97;3.40;;;;;;;20.81;75.68;99877.59;5010356;28;20456;-90
2022/08/02 02:45:08;;;;;;;7.60;3.45;;;;;;;20.82;75.46;99879.94;5013235;28;20559;-89
2022/08/02 02:47:34;;;;;;;5.70;3.40;;;;;;;20.82;75.33;99885.56;5009972;28;20053;-90
2022/08/02 02:50:00;;;;;;;4.93;3.47;;;;;;;20.82;75.47;99877.09;5025431;28;20045;-90
2022/08/02 02:52:25;;;;;;;3.80;3.30;;;;;;;20.85;75.45;99881.72;5012890;28;20594;-90
2022/08/02 02:54:52;;;;;;;5.65;3.20;;;;;;;20.83;76.12;99877.84;5011045;28;20046;-90
2022/08/02 02:57:18;;;;;;;4.55;3.35;;;;;;;20.85;76.05;99886.59;5012795;28;20470;-90
2022/08/02 02:59:44;;;;;;;4.53;3.28;;;;;;;20.85;76.31;99881.72;5009641;28;20052;-90
2022/08/02 03:02:10;;;;;;;3.80;3.40;;;;;;;20.85;76.34;99890.19;5024264;28;20041;-90
2022/08/02 03:04:36;;;;;;;4.03;3.50;;;;;;;20.86;76.70;99890.94;5012917;28;20120;-90
2022/08/02 03:07:02;;;;;;;4.65;3.47;;;;;;;20.84;76.49;99887.84;5025378;28;20041;-90
2022/08/02 03:09:27;;;;;;;4.10;3.63;;;;;;;20.79;77.01;99888.63;5031476;28;20396;-90
2022/08/02 03:11:54;;;;;;;5.95;3.60;;;;;;;20.77;77.28;99885.56;5012043;28;20058;-90
2022/08/02 03:14:20;;;;;;;4.95;3.47;;;;;;;20.74;77.40;99864.81;5016901;28;20040;-90
2022/08/02 03:16:51;;;;;;;3.90;3.42;;;;;;;20.72;77.81;99891.94;5010535;28;20049;-89
2022/08/02 03:19:17;;;;;;;4.20;3.80;;;;;;;20.69;78.31;99892.97;5029869;28;20432;-92
2022/08/02 03:21:43;;;;;;;4.53;3.58;;;;;;;20.67;78.34;99893.47;5030656;28;20041;-92
2022/08/02 03:24:09;;;;;;;4.60;3.58;;;;;;;20.69;78.11;99887.34;5030059;28;20053;-92
2022/08/02 03:26:35;;;;;;;4.38;3.50;;;;;;;20.66;79.13;99889.13;5029371;28;20079;-92
2022/08/02 03:29:01;;;;;;;4.70;3.80;;;;;;;20.61;79.29;99901.16;5029967;28;20042;-92
2022/08/02 03:31:26;;;;;;;5.25;3.92;;;;;;;20.56;79.95;99904.72;5030618;28;20099;-93
2022/08/02 03:33:54;;;;;;;4.30;3.90;;;;;;;20.53;79.94;99896.53;5033822;28;20129;-92
2022/08/02 03:36:20;;;;;;;3.80;3.38;;;;;;;20.56;79.85;99901.13;5034145;28;20049;-93
2022/08/02 03:38:46;;;;;;;5.38;3.53;;;;;;;20.55;79.63;99888.31;5015672;28;20046;-92
2022/08/02 03:41:13;;;;;;;4.10;3.58;;;;;;;20.55;80.22;99900.38;5016583;28;20515;-92
2022/08/02 03:43:39;;;;;;;3.80;3.40;;;;;;;20.51;80.63;99899.84;5034408;28;20088;-92
2022/08/02 03:46:06;;;;;;;4.00;3.58;;;;;;;20.55;80.59;99905.22;5033384;28;20052;-92
2022/08/02 03:48:32;;;;;;;6.07;3.42;;;;;;;20.51;82.77;99905.47;5016215;28;20046;-92
2022/08/02 03:50:58;;;;;;;6.43;3.78;;;;;;;20.56;81.74;99923.69;5029215;28;20047;-92
2022/08/02 03:53:24;;;;;;;5.28;3.80;;;;;;;20.50;81.68;99906.78;5024204;28;20053;-92
2022/08/02 03:55:49;;;;;;;4.78;3.40;;;;;;;20.56;81.61;99918.81;5016133;28;20096;-93
2022/08/02 03:58:19;;;;;;;4.07;3.65;;;;;;;20.60;80.83;99915.75;5015772;28;20096;-92
2022/08/02 04:00:45;;;;;;;6.00;3.55;;;;;;;20.63;81.28;99911.91;5031065;28;20080;-93
2022/08/02 04:03:11;;;;;;;4.22;3.50;;;;;;;20.67;80.73;99915.25;5031021;28;20085;-92
2022/08/02 04:05:37;;;;;;;3.92;3.53;;;;;;;20.72;80.46;99915.25;5023970;28;20038;-93
2022/08/02 04:08:03;;;;;;;3.83;3.40;;;;;;;20.84;79.53;99918.88;5033479;28;20524;-93
2022/08/02 04:10:28;;;;;;;4.38;3.67;;;;;;;20.92;79.46;99914.25;5032658;28;20065;-93
2022/08/02 04:12:54;;;;;;;5.75;3.58;;;;;;;21.01;79.55;99922.47;5029856;28;20041;-93
2022/08/02 04:15:21;;;;;;;5.20;3.65;;;;;;;21.08;78.80;99910.69;5044467;28;20507;-92
2022/08/02 04:17:52;;;;;;;4.57;3.65;;;;;;;21.15;78.37;99915.09;5012275;28;20036;-93
2022/08/02 04:20:20;;;;;;;4.43;3.55;;;;;;;21.14;78.81;99919.97;5040442;28;20041;-93
2022/08/02 04:22:55;;;;;;;5.05;3.80;;;;;;;21.04;79.52;99918.63;5035277;28;20041;-91
2022/08/02 04:25:22;;;;;;;5.57;3.80;;;;;;;21.02;79.75;99918.38;5032397;28;20519;-92
2022/08/02 04:27:48;;;;;;;6.22;3.60;;;;;;;20.94;80.53;99908.91;5013720;28;20489;-92
2022/08/02 04:30:16;;;;;;;5.47;3.65;;;;;;;20.92;80.89;99919.91;5015553;28;20148;-93
2022/08/02 04:32:43;;;;;;;4.72;3.40;;;;;;;20.93;81.45;99924.25;5012750;28;20046;-93
2022/08/02 04:35:09;;;;;;;7.40;3.58;;;;;;;20.98;80.91;99917.88;5031263;28;20087;-92
2022/08/02 04:37:37;;;;;;;4.15;3.72;;;;;;;21.03;80.93;99921.97;5043174;28;20404;-94
2022/08/02 04:40:07;;;;;;;5.63;3.45;;;;;;;21.04;81.08;99917.84;5040028;28;20044;-93
2022/08/02 04:42:33;;;;;;;4.60;3.80;;;;;;;21.09;80.75;99920.69;5043537;28;20052;-93
2022/08/02 04:44:58;;;;;;;5.03;3.70;;;;;;;21.10;80.86;99922.22;5034232;28;20056;-92
2022/08/02 04:47:24;;;;;;;4.93;3.53;;;;;;;21.08;80.67;99930.41;4997627;28;20152;-94
2022/08/02 04:49:49;;;;;;;3.90;3.53;;;;;;;21.10;80.67;99930.69;5025314;28;20048;-94
2022/08/02 04:52:15;;;;;;;5.45;4.07;;;;;;;21.15;80.66;99932.75;5013445;28;20045;-93
2022/08/02 04:54:40;;;;;;;6.30;3.92;;;;;;;21.24;79.54;99943.78;5015445;28;20037;-93
2022/08/02 04:57:53;;;;;;;4.82;3.80;;;;;;;21.28;79.87;99944.31;5033197;28;20449;-93
2022/08/02 04:59:51;;;;;;;4.72;3.67;;;;;;;21.32;81.01;99950.47;5015051;28;20512;-93
2022/08/02 05:02:17;;;;;;;5.00;3.95;;;;;;;21.37;81.62;99957.38;5015158;28;20033;-91
2022/08/02 05:04:42;;;;;;;4.00;3.60;;;;;;;21.48;80.09;99967.88;5033053;28;20076;-92
2022/08/02 05:07:08;;;;;;;4.65;4.00;;;;;;;21.54;79.81;99971.50;5032943;28;20045;-92
2022/08/02 05:09:34;;;;;;;5.43;3.70;;;;;;;21.58;79.04;99972.00;5038155;28;20056;-92
2022/08/02 05:11:59;;;;;;;4.18;3.72;;;;;;;21.62;78.77;99967.63;5014109;28;20076;-92
2022/08/02 05:14:25;;;;;;;4.30;3.50;;;;;;;21.78;77.96;99963.25;5002147;28;20033;-92
2022/08/02 05:16:50;;;;;;;4.75;3.78;;;;;;;21.91;77.82;99966.31;5009249;28;20408;-92
2022/08/02 05:19:16;;;;;;;4.63;3.78;;;;;;;22.06;76.53;99972.44;5015183;28;20501;-92
2022/08/02 05:21:41;;;;;;;4.20;3.22;;;;;;;22.28;75.94;99972.38;5009959;28;20124;-92
2022/08/02 05:24:07;;;;;;;4.28;3.55;;;;;;;22.53;75.34;99981.78;5009425;28;20048;-92
2022/08/02 05:26:35;;;;;;;5.35;3.55;;;;;;;22.70;75.02;99978.88;5009664;28;20516;-92
2022/08/02 05:29:03;;;;;;;5.93;3.58;;;;;;;22.94;74.11;99979.00;5010962;28;20046;-92
2022/08/02 05:31:29;;;;;;;4.05;3.53;;;;;;;23.15;72.04;99974.50;5017294;28;20041;-92
2022/08/02 05:33:55;;;;;;;4.32;3.17;;;;;;;23.49;71.66;99991.25;5018925;28;20041;-92
2022/08/02 05:36:20;;;;;;;4.07;3.20;;;;;;;23.62;70.59;99986.47;5013128;28;20489;-91
2022/08/02 05:38:46;;;;;;;4.30;3.33;;;;;;;23.86;68.60;99996.31;5010992;28;20061;-92
2022/08/02 05:41:12;;;;;;;6.55;3.60;;;;;;;23.88;68.15;99988.03;5019292;28;20052;-92
2022/08/02 05:43:37;;;;;;;3.67;3.35;;;;;;;23.89;66.92;99995.25;5010681;28;20528;-92
2022/08/02 05:46:03;;;;;;;4.05;3.30;;;;;;;24.03;67.17;100006.16;5015711;28;20144;-93
2022/08/02 05:48:29;;;;;;;3.90;3.47;;;;;;;23.93;66.98;100007.06;5025861;28;20099;-93
2022/08/02 05:51:02;;;;;;;4.80;3.20;;;;;;;23.76;66.52;100012.88;5010643;28;20058;-93
2022/08/02 05:53:54;;;;;;;5.05;3.10;;;;;;;23.71;66.65;100008.03;4970176;28;20064;-91
2022/08/02 05:56:33;;;;;;;7.90;4.75;;;;;;;23.46;68.62;100010.03;5018073;28;20056;-90
2022/08/02 05:59:23;;;;;;;4.03;3.47;;;;;;;23.17;70.39;100005.84;5005385;28;20046;-92
2022/08/02 06:01:55;;;;;;;3.63;3.33;;;;;;;23.23;70.69;100014.31;4982772;28;20053;-92
2022/08/02 06:04:25;;;;;;;4.85;3.60;;;;;;;23.30;70.17;100007.31;4999679;28;20061;-93
2022/08/02 06:06:54;;;;;;;4.10;3.67;;;;;;;23.24;69.93;100022.28;4990883;28;20050;-91
2022/08/02 06:09:21;;;;;;;5.28;3.50;;;;;;;23.19;69.13;100020.25;5009586;28;20113;-92
2022/08/02 06:11:51;;;;;;;5.88;3.70;;;;;;;23.00;70.30;100013.69;5022545;28;20491;-91
2022/08/02 06:14:17;;;;;;;5.38;3.83;;;;;;;22.97;70.71;100011.88;4997610;28;20096;-92
2022/08/02 06:16:43;;;;;;;4.60;3.60;;;;;;;23.06;71.74;100010.81;5011630;28;20537;-93
2022/08/02 06:19:11;;;;;;;5.15;3.80;;;;;;;23.16;70.25;100010.00;5028970;28;20059;-92
2022/08/02 06:21:38;;;;;;;4.75;3.55;;;;;;;23.19;69.98;100019.47;5027384;28;20069;-93
2022/08/02 06:24:04;;;;;;;7.32;3.78;;;;;;;23.20;69.73;100016.13;5011346;28;20061;-92
2022/08/02 06:26:30;;;;;;;5.80;3.70;;;;;;;23.32;69.38;100024.53;5011413;28;20124;-92
2022/08/02 06:28:57;;;;;;;4.43;3.58;;;;;;;23.45;69.00;100016.25;5010706;28;20132;-92
2022/08/02 06:31:23;;;;;;;3.90;3.47;;;;;;;23.47;69.12;100017.25;5030600;28;20033;-92
2022/08/02 06:33:48;;;;;;;5.03;3.70;;;;;;;23.50;69.05;100021.84;5013253;28;20515;-92
2022/08/02 06:36:33;;;;;;;5.60;3.83;;;;;;;23.55;67.78;100011.78;5030620;28;20048;-91
2022/08/02 06:39:22;;;;;;;5.15;3.88;;;;;;;23.54;67.58;100022.31;5028345;28;20091;-90
2022/08/02 06:41:48;;;;;;;3.85;3.47;;;;;;;23.47;68.80;100022.13;5017742;28;20063;-91
2022/08/02 06:44:22;;;;;;;4.85;3.50;;;;;;;23.63;67.98;100016.34;5006212;28;20041;-90
2022/08/02 06:46:47;;;;;;;4.55;4.03;;;;;;;23.88;67.86;100016.38;5019184;28;20114;-91
2022/08/02 06:49:13;;;;;;;4.60;3.67;;;;;;;23.97;67.52;100021.69;5019540;28;20030;-90
2022/08/02 06:51:38;;;;;;;4.55;3.60;;;;;;;24.00;67.33;100021.41;5010431;28;20033;-91
2022/08/02 06:54:04;;;;;;;5.05;3.80;;;;;;;24.05;67.65;100020.59;5028683;28;20092;-89
2022/08/02 06:56:29;;;;;;;6.90;3.85;;;;;;;23.97;66.60;100016.81;5027750;28;20439;-91
2022/08/02 06:58:55;;;;;;;4.03;3.63;;;;;;;23.82;67.26;100022.06;5030223;28;20044;-91
2022/08/02 07:01:20;;;;;;;5.13;3.78;;;;;;;23.68;68.06;100023.25;5028460;28;20049;-91
2022/08/02 07:03:46;;;;;;;4.60;3.33;;;;;;;23.65;68.78;100021.47;5026901;28;20045;-90
2022/08/02 07:06:11;;;;;;;5.90;3.83;;;;;;;23.69;68.44;100004.97;5010465;28;20045;-90
2022/08/02 07:08:37;;;;;;;8.25;3.90;;;;;;;23.76;68.08;100020.59;5028392;28;20091;-90
2022/08/02 07:11:08;;;;;;;4.38;3.97;;;;;;;23.77;68.87;100022.91;5018381;28;20050;-90
2022/08/02 07:13:34;;;;;;;6.53;4.07;;;;;;;23.82;68.96;100007.91;5008987;28;20053;-90
2022/08/02 07:16:00;;;;;;;5.88;3.95;;;;;;;23.89;68.82;100015.84;5008788;28;20029;-88
2022/08/02 07:18:25;;;;;;;4.40;4.00;;;;;;;24.18;67.92;100011.47;5007301;28;20046;-89
2022/08/02 07:20:51;;;;;;;4.85;3.90;;;;;;;24.54;66.04;99997.91;5009430;28;20093;-91
2022/08/02 07:23:17;;;;;;;4.57;4.10;;;;;;;25.03;64.75;100012.72;5006751;28;20049;-88
2022/08/02 07:25:46;;;;;;;4.75;3.88;;;;;;;25.36;63.27;100005.75;5007106;28;20037;-89
2022/08/02 07:28:14;;;;;;;5.63;3.88;;;;;;;25.60;62.61;100004.91;4996078;28;20480;-90
2022/08/02 07:30:40;;;;;;;4.40;4.00;;;;;;;25.88;61.86;100008.75;5037839;22;20134;-80
2022/08/02 07:33:06;;;;;;;4.32;3.88;;;;;;;26.19;59.46;100015.72;5051056;28;20056;-81
2022/08/02 07:35:31;;;;;;;5.05;4.32;;;;;;;26.17;59.33;100017.53;5050440;28;20612;-80
2022/08/02 07:37:57;;;;;;;6.32;4.57;;;;;;;26.38;59.68;100005.00;5048006;28;20033;-82
2022/08/02 07:40:23;;;;;;;6.10;4.18;;;;;;;26.54;57.86;100017.34;5036858;28;20044;-83
2022/08/02 07:42:51;;;;;;;6.20;4.38;;;;;;;26.62;58.05;100004.00;5040923;28;20037;-83
2022/08/02 07:45:17;;;;;;;4.57;4.13;;;;;;;27.09;56.42;100009.72;5011669;28;20052;-81
2022/08/02 07:47:44;;;;;;;4.82;4.10;;;;;;;26.78;57.02;100014.25;5070195;22;20055;-82
2022/08/02 07:50:11;;;;;;;8.55;4.20;;;;;;;26.59;58.52;100007.94;5043376;28;20042;-81
2022/08/02 07:52:36;;;;;;;5.90;4.30;;;;;;;26.36;57.82;100019.00;5037086;28;20120;-82
2022/08/02 07:55:03;;;;;;;4.97;4.47;;;;;;;26.02;59.97;100017.31;5047151;28;20136;-82
2022/08/02 07:57:29;;;;;;;5.18;4.40;;;;;;;25.74;59.29;100014.97;5043960;28;20530;-81
2022/08/02 07:59:55;;;;;;;6.80;4.55;;;;;;;25.68;60.73;100017.91;5043422;28;20448;-81
2022/08/02 08:02:23;;;;;;;5.18;4.40;;;;;;;26.23;60.63;100010.47;5034697;28;20041;-82
2022/08/02 08:04:49;;;;;;;5.07;4.15;;;;;;;26.81;57.18;100013.13;5064198;22;20080;-84
2022/08/02 08:07:14;;;;;;;4.80;3.90;;;;;;;27.22;56.61;100011.72;5028217;28;20050;-84
2022/08/02 08:09:40;;;;;;;6.05;4.07;;;;;;;26.89;56.78;100016.13;5029840;28;20122;-84
2022/08/02 08:12:07;;;;;;;5.43;3.92;;;;;;;26.93;57.21;100015.78;5023907;28;20038;-84
2022/08/02 08:14:33;;;;;;;6.57;4.20;;;;;;;27.04;56.46;100004.16;5017883;28;20069;-84
2022/08/02 08:17:00;;;;;;;4.90;4.43;;;;;;;27.18;56.04;100012.06;5018453;28;20108;-84
2022/08/02 08:19:25;;;;;;;6.07;3.80;;;;;;;27.43;56.36;100009.66;5027171;28;20037;-84
2022/08/02 08:21:51;;;;;;;5.00;3.85;;;;;;;28.02;55.27;100019.34;5045256;28;20144;-84
2022/08/02 08:24:16;;;;;;;5.10;4.25;;;;;;;28.51;52.55;100021.38;5033177;28;20045;-93
2022/08/02 08:26:42;;;;;;;4.47;3.95;;;;;;;28.34;52.72;100021.84;5037813;28;20490;-91
2022/08/02 08:29:08;;;;;;;4.72;4.03;;;;;;;28.59;51.72;100005.81;5038950;28;20041;-92
2022/08/02 08:31:33;;;;;;;4.20;3.80;;;;;;;29.01;51.59;100025.63;5052649;28;20375;-94
2022/08/02 08:33:59;;;;;;;4.95;3.90;;;;;;;29.18;49.10;100026.63;5054211;28;20079;-92
2022/08/02 08:36:25;;;;;;;5.78;3.83;;;;;;;29.14;49.72;100031.19;5052220;28;20508;-92
2022/08/02 08:38:51;;;;;;;6.05;3.90;;;;;;;28.90;50.29;100025.97;5053789;28;20041;-93
2022/08/02 08:41:17;;;;;;;5.18;3.83;;;;;;;29.22;49.07;100031.19;5053493;28;20098;-93
2022/08/02 08:43:44;;;;;;;4.18;3.60;;;;;;;29.45;49.10;100018.50;5053185;28;20040;-84
2022/08/02 08:46:29;;;;;;;4.63;3.70;;;;;;;29.76;48.17;100036.47;5037309;28;20128;-84
2022/08/02 08:48:59;;;;;;;5.35;3.60;;;;;;;30.01;45.71;100025.22;5027335;28;20144;-84
2022/08/02 08:51:30;;;;;;;6.90;4.35;;;;;;;29.81;46.76;100037.59;5033341;28;20048;-84
2022/08/02 08:53:57;;;;;;;5.10;3.55;;;;;;;29.98;45.77;100034.94;5054948;28;20056;-84
2022/08/02 08:56:23;;;;;;;6.32;4.20;;;;;;;29.78;45.61;100039.50;5031150;28;20036;-83
2022/08/02 08:58:48;;;;;;;5.32;3.67;;;;;;;29.77;46.19;100040.06;5033615;28;20049;-84
2022/08/02 09:01:15;;;;;;;5.32;3.70;;;;;;;29.98;46.84;100047.16;5042924;28;20044;-94
2022/08/02 09:03:42;;;;;;;5.10;3.95;;;;;;;29.80;45.71;100036.84;5029388;28;20037;-94
2022/08/02 09:06:08;;;;;;;5.60;3.80;;;;;;;29.94;44.93;100040.28;5046183;28;20045;-92
2022/08/02 09:08:33;;;;;;;3.88;3.47;;;;;;;30.07;44.39;100045.81;5041091;28;20068;-93
2022/08/02 09:10:59;;;;;;;3.92;3.53;;;;;;;30.00;44.61;100038.00;5034264;28;20041;-93
2022/08/02 09:13:28;;;;;;;4.05;3.72;;;;;;;30.10;43.33;100042.56;5029034;28;20036;-92
2022/08/02 09:16:00;;;;;;;4.03;3.67;;;;;;;29.83;43.89;100044.28;5027179;28;20561;-92
2022/08/02 09:18:33;;;;;;;6.28;4.00;;;;;;;30.07;44.02;100045.81;5026703;28;20033;-94
2022/08/02 09:21:01;;;;;;;3.92;3.50;;;;;;;30.26;44.79;100043.31;5040845;28;20082;-84
2022/08/02 09:23:34;;;;;;;3.88;3.55;;;;;;;30.59;43.19;100047.09;5031062;28;20512;-84
2022/08/02 09:26:05;;;;;;;4.10;3.50;;;;;;;30.04;42.92;100050.59;5040500;28;20534;-84
2022/08/02 09:28:33;;;;;;;5.50;3.50;;;;;;;30.40;44.53;100041.78;5032299;28;20045;-84
2022/08/02 09:31:06;;;;;;;5.18;3.17;;;;;;;30.79;43.20;100048.16;5032261;28;20021;-84
2022/08/02 09:33:32;;;;;;;4.00;3.70;;;;;;;30.78;42.58;100040.91;5054621;28;20059;-84
2022/08/02 09:36:06;;;;;;;4.40;3.42;;;;;;;31.10;42.46;100038.13;5032594;28;20049;-84
2022/08/02 09:38:32;;;;;;;4.07;3.40;;;;;;;31.25;42.22;100037.28;5039773;28;20047;-84
2022/08/02 09:40:59;;;;;;;3.97;3.60;;;;;;;31.19;42.20;100023.19;5040580;28;20039;-95
2022/08/02 09:43:41;;;;;;;5.72;3.72;;;;;;;31.46;42.04;100029.88;5030861;28;20081;-94
2022/08/02 09:46:16;;;;;;;5.70;3.92;;;;;;;31.31;41.58;100032.09;5039536;28;20093;-92
2022/08/02 09:48:56;;;;;;;5.55;3.50;;;;;;;31.76;40.53;100023.19;5036612;28;20040;-93
2022/08/02 09:51:26;;;;;;;3.45;3.10;;;;;;;31.34;40.23;100031.69;5034001;28;20128;-93
2022/08/02 09:53:59;;;;;;;4.10;3.00;;;;;;;31.14;39.02;100029.88;5031138;28;20034;-93
2022/08/02 09:56:28;;;;;;;4.65;3.10;;;;;;;31.26;40.27;100033.09;5029537;28;20132;-94
2022/08/02 09:58:55;;;;;;;3.45;3.10;;;;;;;31.13;39.68;100028.38;5031197;28;20116;-84
2022/08/02 10:01:30;;;;;;;4.68;3.15;;;;;;;30.94;40.32;100028.03;5039692;28;20402;-84
2022/08/02 10:04:09;;;;;;;5.43;2.90;;;;;;;31.16;39.52;100018.63;5026599;28;20042;-84
2022/08/02 10:06:35;;;;;;;4.22;3.05;;;;;;;31.38;38.70;100022.69;5031430;28;20042;-84
2022/08/02 10:09:01;;;;;;;2.85;2.60;;;;;;;31.57;38.60;100013.59;5030244;28;20048;-84
2022/08/02 10:11:27;;;;;;;3.10;2.78;;;;;;;31.40;38.94;100014.25;5031284;28;20482;-84
2022/08/02 10:13:54;;;;;;;3.90;2.78;;;;;;;31.50;39.80;100014.41;5031148;28;20041;-84
2022/08/02 10:16:22;;;;;;;7.78;3.75;;;;;;;31.91;39.98;100010.81;5030176;28;20046;-84
2022/08/02 10:18:53;;;;;;;4.20;2.97;;;;;;;31.92;40.05;100009.47;5044643;28;20124;-92
2022/08/02 10:21:25;;;;;;;5.60;3.10;;;;;;;32.29;37.46;100011.25;5029625;28;20041;-92
2022/08/02 10:23:52;;;;;;;5.68;2.95;;;;;;;32.09;37.85;100009.53;5029018;28;20041;-92
2022/08/02 10:26:19;;;;;;;4.15;2.90;;;;;;;31.84;37.32;100011.66;5030061;28;20073;-94
2022/08/02 10:28:48;;;;;;;3.28;2.78;;;;;;;31.96;37.23;100006.94;5031379;28;20042;-92
2022/08/02 10:31:19;;;;;;;5.93;2.85;;;;;;;32.10;37.95;100011.06;5015552;28;20521;-94
2022/08/02 10:33:44;;;;;;;5.63;3.25;;;;;;;32.04;38.00;100007.66;5029797;28;20075;-96
2022/08/02 10:36:10;;;;;;;3.88;2.80;;;;;;;31.41;39.82;99993.63;5029882;28;20061;-94
2022/08/02 10:38:36;;;;;;;4.15;2.80;;;;;;;31.90;39.12;100004.34;5013283;28;20469;-85
2022/08/02 10:41:02;;;;;;;3.13;2.83;;;;;;;31.93;39.23;99990.94;5030495;28;20125;-85
2022/08/02 10:43:31;;;;;;;3.40;2.83;;;;;;;32.48;37.74;99992.66;5028726;28;20814;-85
2022/08/02 10:46:34;;;;;;;3.42;2.80;;;;;;;32.46;37.59;99989.63;5030731;28;20033;-82
2022/08/02 10:49:07;;;;;;;;;;;;;;;32.13;36.71;99995.53;5030686;28;20053;-82
2022/08/02 10:51:51;;;;;;;;;;;;;;;32.40;36.91;99987.00;5030008;28;20282;-82
2022/08/02 10:54:20;;;;;;;3.67;3.30;;;;;;;32.26;38.16;99995.22;5030415;28;19917;-85
2022/08/02 10:56:51;;;;;;;6.50;3.08;;;;;;;32.53;37.49;99989.53;5028505;28;20394;-95
2022/08/02 10:59:30;;;;;;;5.05;3.00;;;;;;;32.38;37.91;99981.88;5029494;28;20049;-93
2022/08/02 11:02:03;;;;;;;4.40;3.08;;;;;;;31.84;39.04;99975.13;5028425;28;20124;-94
2022/08/02 11:04:52;;;;;;;5.07;3.00;;;;;;;31.18;40.07;99980.78;5029042;28;20045;-93
2022/08/02 11:07:19;;;;;;;5.20;3.17;;;;;;;31.07;40.28;99986.97;5031778;28;20045;-93
2022/08/02 11:09:46;;;;;;;4.85;3.15;;;;;;;31.12;40.18;99978.16;5039131;28;20465;-94
2022/08/02 11:12:13;;;;;;;4.15;3.10;;;;;;;31.45;40.65;99984.63;5037435;28;20049;-94
2022/08/02 11:14:43;;;;;;;4.43;3.13;;;;;;;31.91;39.20;99982.13;5038302;28;20037;-95
2022/08/02 11:17:10;;;;;;;6.75;3.38;;;;;;;32.43;38.04;99976.47;5037885;28;20053;-85
2022/08/02 11:20:07;;;;;;;3.40;3.10;;;;;;;31.59;39.52;99973.63;5038004;28;20021;-85
2022/08/02 11:22:33;;;;;;;4.07;3.30;;;;;;;31.12;40.32;99963.06;5035451;28;20127;-85
2022/08/02 11:25:22;;;;;;;3.55;3.25;;;;;;;31.39;42.12;99958.28;5037690;28;20025;-85
2022/08/02 11:27:51;;;;;;;4.38;2.95;;;;;;;31.93;40.10;99967.97;5054845;28;20446;-85
2022/08/02 11:30:17;;;;;;;3.90;2.65;;;;;;;32.32;38.54;99961.28;5050008;28;20026;-85
2022/08/02 11:32:43;;;;;;;3.90;3.40;;;;;;;32.28;37.10;99957.28;5030395;28;20442;-85
2022/08/02 11:35:09;;;;;;;3.08;2.78;;;;;;;32.52;37.18;99964.28;5038256;28;20029;-93
2022/08/02 11:37:36;;;;;;;4.00;3.15;;;;;;;32.48;37.80;99958.22;5033680;28;20045;-94
2022/08/02 11:40:08;;;;;;;3.67;2.88;;;;;;;33.07;35.89;99967.44;5039204;28;20116;-94